Time;durP1;ratioP1;P1;durP2;ratioP2;P2;SDS_P1;SDS_P2;PMS_P1;PMS_P2;Temp;Humidity;BMP_temperature;BMP_pressure;BME280_temperature;BME280_humidity;BME280_pressure;Samples;Min_cycle;Max_cycle;Signal;HPM_P1;HPM_P2
2022/01/11 00:00:23;;;;;;;5.55;4.38;;;-0.50;77.00;;;;;;5089913;28;20039;-58
2022/01/11 00:02:50;;;;;;;5.85;4.45;;;-0.50;77.30;;;;;;5094318;28;20023;-59
2022/01/11 00:05:29;;;;;;;5.32;4.25;;;-0.60;77.00;;;;;;5087232;28;20035;-60
2022/01/11 00:07:55;;;;;;;5.10;4.10;;;-0.60;76.90;;;;;;5084512;28;20537;-59
2022/01/11 00:10:32;;;;;;;6.60;4.45;;;-0.60;76.60;;;;;;5108269;28;20039;-58
2022/01/11 00:13:00;;;;;;;5.50;4.20;;;-0.60;76.80;;;;;;5091215;28;20028;-59
2022/01/11 00:15:27;;;;;;;6.00;4.07;;;-0.70;76.80;;;;;;5087028;28;20349;-59
2022/01/11 00:17:54;;;;;;;6.38;4.68;;;-0.70;77.60;;;;;;5095644;28;20422;-60
2022/01/11 00:20:20;;;;;;;6.60;4.82;;;-0.70;77.10;;;;;;5093959;28;20039;-60
2022/01/11 00:25:45;;;;;;;6.72;4.68;;;-0.70;77.00;;;;;;5036538;28;20037;-59
2022/01/11 00:28:13;;;;;;;6.45;4.68;;;-0.70;77.10;;;;;;5092156;28;20024;-58
2022/01/11 00:30:41;;;;;;;5.82;3.95;;;-0.70;76.90;;;;;;5095091;28;20028;-60
2022/01/11 00:33:12;;;;;;;5.47;4.47;;;-0.80;77.30;;;;;;5091401;28;20773;-56
2022/01/11 00:35:46;;;;;;;5.55;4.30;;;-0.80;76.60;;;;;;5090593;28;20419;-59
2022/01/11 00:38:18;;;;;;;6.05;4.10;;;-0.80;76.90;;;;;;5089810;28;20415;-59
2022/01/11 00:40:51;;;;;;;6.38;4.50;;;-0.80;76.90;;;;;;5094974;28;20044;-55
2022/01/11 00:43:19;;;;;;;7.22;4.15;;;-0.80;77.00;;;;;;5093881;28;20067;-58
2022/01/11 00:45:46;;;;;;;6.22;4.38;;;-0.80;77.10;;;;;;5095035;28;20103;-58
2022/01/11 00:48:11;;;;;;;4.53;3.78;;;-0.80;77.10;;;;;;5090228;28;20081;-59
2022/01/11 00:50:37;;;;;;;5.20;4.15;;;-0.80;77.10;;;;;;5089246;28;20107;-59
2022/01/11 00:53:04;;;;;;;6.95;4.53;;;-0.80;77.00;;;;;;5078551;28;20052;-58
2022/01/11 00:55:31;;;;;;;5.32;4.32;;;-0.80;76.80;;;;;;5087129;28;20020;-57
2022/01/11 00:57:56;;;;;;;4.53;3.90;;;-0.80;76.90;;;;;;5091550;28;20089;-59
2022/01/11 01:00:22;;;;;;;7.47;4.35;;;-0.90;76.90;;;;;;5083815;28;20469;-59
2022/01/11 01:02:48;;;;;;;7.07;4.63;;;-0.90;76.70;;;;;;5090624;28;20036;-58
2022/01/11 01:05:17;;;;;;;5.03;3.90;;;-0.90;76.60;;;;;;5093561;28;20047;-59
2022/01/11 01:07:44;;;;;;;4.95;4.05;;;-0.90;76.60;;;;;;5089849;28;20028;-59
2022/01/11 01:10:46;;;;;;;6.18;4.32;;;-1.00;76.30;;;;;;5090602;28;20032;-58
2022/01/11 01:13:06;;;;;;;5.90;3.90;;;-1.00;76.50;;;;;;5080309;28;20074;-59
2022/01/11 01:15:34;;;;;;;6.40;4.10;;;-1.00;76.30;;;;;;5093750;28;20073;-57
2022/01/11 01:18:00;;;;;;;5.70;4.40;;;-1.00;76.30;;;;;;5094583;28;20391;-58
2022/01/11 01:20:26;;;;;;;5.97;4.55;;;-1.10;76.00;;;;;;5094061;28;20043;-59
2022/01/11 01:22:52;;;;;;;5.47;4.10;;;-1.10;75.90;;;;;;5087975;28;20042;-59
2022/01/11 01:25:20;;;;;;;6.45;4.40;;;-1.10;75.90;;;;;;5089253;28;20039;-58
2022/01/11 01:27:47;;;;;;;5.53;3.85;;;-1.10;76.50;;;;;;5093210;28;20107;-58
2022/01/11 01:30:13;;;;;;;5.18;4.05;;;-1.10;76.00;;;;;;5076876;28;20039;-55
2022/01/11 01:32:38;;;;;;;6.30;4.45;;;-1.10;76.10;;;;;;5077805;28;20111;-60
2022/01/11 01:35:05;;;;;;;5.88;4.20;;;-1.10;76.20;;;;;;5073988;28;20028;-58
2022/01/11 01:37:31;;;;;;;5.00;3.92;;;-1.10;76.20;;;;;;5086572;28;20475;-59
2022/01/11 01:39:57;;;;;;;5.20;4.13;;;-1.10;76.10;;;;;;5086329;28;20025;-57
2022/01/11 01:42:26;;;;;;;6.57;4.13;;;-1.10;76.20;;;;;;5088107;28;20427;-59
2022/01/11 01:44:52;;;;;;;5.95;4.05;;;-1.10;76.30;;;;;;5088572;28;20063;-60
2022/01/11 01:47:18;;;;;;;7.10;4.95;;;-1.10;76.40;;;;;;5085732;28;20032;-59
2022/01/11 01:49:44;;;;;;;5.43;3.88;;;-1.10;76.30;;;;;;5093035;28;20032;-59
2022/01/11 01:52:10;;;;;;;7.53;4.07;;;-1.10;76.30;;;;;;5093658;28;20028;-59
2022/01/11 01:54:36;;;;;;;4.93;3.78;;;-1.00;76.20;;;;;;5093429;28;20486;-58
2022/01/11 01:57:04;;;;;;;5.43;4.32;;;-1.00;76.20;;;;;;5085375;28;20020;-58
2022/01/11 01:59:30;;;;;;;7.30;4.50;;;-1.00;76.20;;;;;;5079675;28;20031;-59
2022/01/11 02:01:57;;;;;;;6.00;4.78;;;-1.00;76.20;;;;;;5079234;28;20342;-59
2022/01/11 02:04:22;;;;;;;5.05;3.97;;;-1.00;76.00;;;;;;5080860;28;20055;-59
2022/01/11 02:06:48;;;;;;;9.57;5.00;;;-1.00;75.90;;;;;;5086606;28;20024;-59
2022/01/11 02:09:15;;;;;;;8.73;5.38;;;-1.00;75.90;;;;;;5081043;28;20086;-59
2022/01/11 02:11:41;;;;;;;8.20;5.07;;;-1.00;76.00;;;;;;5093300;28;20062;-59
2022/01/11 02:14:08;;;;;;;6.22;5.28;;;-1.10;75.90;;;;;;5090735;28;20020;-58
2022/01/11 02:16:34;;;;;;;6.72;5.10;;;-1.10;75.80;;;;;;5079917;28;20427;-58
2022/01/11 02:19:00;;;;;;;6.40;4.90;;;-1.10;75.70;;;;;;5084662;28;20028;-58
2022/01/11 02:21:26;;;;;;;8.40;4.68;;;-1.10;75.90;;;;;;5092915;28;20131;-59
2022/01/11 02:23:52;;;;;;;8.55;5.47;;;-1.20;75.90;;;;;;5092119;28;20353;-59
2022/01/11 02:26:19;;;;;;;7.72;5.18;;;-1.20;75.70;;;;;;5080967;28;20030;-59
2022/01/11 02:28:45;;;;;;;7.95;5.05;;;-1.20;75.90;;;;;;5089068;28;20021;-57
2022/01/11 02:31:13;;;;;;;8.48;5.55;;;-1.20;76.30;;;;;;5079729;28;20034;-56
2022/01/11 02:33:48;;;;;;;7.95;4.80;;;-1.20;76.10;;;;;;5074110;28;20035;-58
2022/01/11 02:36:26;;;;;;;6.55;4.78;;;-1.20;76.30;;;;;;5078969;28;20039;-58
2022/01/11 02:38:53;;;;;;;6.57;4.25;;;-1.10;76.00;;;;;;5093253;28;20514;-60
2022/01/11 02:41:19;;;;;;;9.63;4.97;;;-1.10;76.00;;;;;;5092726;28;20032;-58
2022/01/11 02:43:47;;;;;;;7.53;4.75;;;-1.10;75.90;;;;;;5093263;28;20375;-58
2022/01/11 02:46:15;;;;;;;7.25;5.00;;;-1.10;76.10;;;;;;5090503;28;20036;-58
2022/01/11 02:48:41;;;;;;;7.50;5.15;;;-1.00;76.20;;;;;;5080930;28;20025;-58
2022/01/11 02:51:07;;;;;;;7.95;5.25;;;-1.00;76.20;;;;;;5088863;28;20020;-58
2022/01/11 02:53:40;;;;;;;7.95;5.13;;;-1.00;76.10;;;;;;5078422;28;20028;-58
2022/01/11 02:56:05;;;;;;;6.93;5.18;;;-1.00;76.00;;;;;;5092228;28;20099;-57
2022/01/11 02:58:31;;;;;;;8.93;5.60;;;-0.90;76.00;;;;;;5089990;28;20110;-58
2022/01/11 03:00:57;;;;;;;9.18;5.53;;;-1.00;75.90;;;;;;5092872;28;20020;-59
2022/01/11 03:03:23;;;;;;;7.20;5.45;;;-1.00;75.70;;;;;;5076761;28;20031;-60
2022/01/11 03:05:54;;;;;;;7.75;4.70;;;-1.00;75.40;;;;;;5083475;28;20098;-60
2022/01/11 03:08:21;;;;;;;7.45;5.00;;;-1.00;75.60;;;;;;5090061;28;20078;-58
2022/01/11 03:10:49;;;;;;;7.03;4.75;;;-1.00;75.80;;;;;;5089484;28;20059;-59
2022/01/11 03:13:16;;;;;;;8.25;5.30;;;-1.00;75.80;;;;;;5092456;28;20028;-58
2022/01/11 03:15:43;;;;;;;5.60;4.45;;;-1.00;75.70;;;;;;5078515;28;20029;-57
2022/01/11 03:18:09;;;;;;;7.72;5.47;;;-1.00;75.40;;;;;;5092891;28;20013;-58
2022/01/11 03:20:36;;;;;;;6.43;4.38;;;-1.00;75.30;;;;;;5090472;28;20522;-57
2022/01/11 03:23:02;;;;;;;6.93;4.60;;;-1.00;75.20;;;;;;5083622;28;20495;-57
2022/01/11 03:25:28;;;;;;;9.50;5.00;;;-1.00;75.20;;;;;;5078201;28;20108;-57
2022/01/11 03:27:53;;;;;;;7.95;4.82;;;-0.90;75.20;;;;;;5092461;28;20103;-59
2022/01/11 03:30:19;;;;;;;7.18;5.10;;;-0.90;75.00;;;;;;5082679;28;20029;-57
2022/01/11 03:32:46;;;;;;;7.18;5.75;;;-0.90;74.80;;;;;;5083399;28;20392;-59
2022/01/11 03:35:12;;;;;;;9.35;5.07;;;-0.90;75.00;;;;;;5074638;28;20082;-59
2022/01/11 03:37:40;;;;;;;7.25;5.10;;;-0.90;75.10;;;;;;5078305;28;20048;-58
2022/01/11 03:40:11;;;;;;;7.38;5.15;;;-0.90;74.80;;;;;;5082485;28;20534;-59
2022/01/11 03:42:37;;;;;;;6.97;5.10;;;-0.90;74.70;;;;;;5089676;28;20107;-59
2022/01/11 03:45:07;;;;;;;9.05;5.38;;;-0.90;74.70;;;;;;5092311;28;20071;-59
2022/01/11 03:47:34;;;;;;;8.75;5.72;;;-0.90;74.60;;;;;;5077193;28;20099;-59
2022/01/11 03:49:59;;;;;;;7.55;5.18;;;-0.90;74.70;;;;;;5091012;28;20028;-60
2022/01/11 03:52:25;;;;;;;9.82;5.70;;;-0.90;74.30;;;;;;5092042;28;20350;-59
2022/01/11 03:57:24;;;;;;;8.68;5.55;;;-0.90;74.40;;;;;;5090394;28;20031;-58
2022/01/11 03:59:50;;;;;;;9.68;5.45;;;-0.90;74.10;;;;;;5088139;28;20465;-59
2022/01/11 04:02:16;;;;;;;6.32;4.50;;;-0.90;74.10;;;;;;5082899;28;20066;-58
2022/01/11 04:04:41;;;;;;;8.48;5.43;;;-0.90;73.90;;;;;;5082493;28;20750;-59
2022/01/11 04:07:07;;;;;;;7.65;5.25;;;-0.90;74.10;;;;;;5110426;28;20163;-59
2022/01/11 04:09:33;;;;;;;7.38;4.95;;;-0.90;74.10;;;;;;5093871;28;20032;-58
2022/01/11 04:11:58;;;;;;;7.82;5.95;;;-0.90;74.20;;;;;;5083318;28;20024;-58
2022/01/11 04:14:25;;;;;;;7.38;4.85;;;-0.90;74.10;;;;;;5093164;28;20031;-59
2022/01/11 04:16:52;;;;;;;8.65;5.35;;;-0.90;74.10;;;;;;5088417;28;20032;-58
2022/01/11 04:19:18;;;;;;;10.98;6.05;;;-0.90;74.00;;;;;;5083291;28;20032;-58
2022/01/11 04:21:44;;;;;;;7.53;5.13;;;-0.90;74.20;;;;;;5074956;28;20036;-60
2022/01/11 04:24:11;;;;;;;8.15;4.93;;;-0.90;74.20;;;;;;5093450;28;20028;-59
2022/01/11 04:26:38;;;;;;;6.00;4.80;;;-0.80;74.40;;;;;;5086518;28;20033;-59
2022/01/11 04:29:03;;;;;;;9.30;5.85;;;-0.80;74.20;;;;;;5082435;28;20107;-58
2022/01/11 04:31:29;;;;;;;8.95;5.75;;;-0.80;74.20;;;;;;5082583;28;20104;-59
2022/01/11 04:33:55;;;;;;;9.15;5.35;;;-0.80;74.10;;;;;;5080701;28;20028;-58
2022/01/11 04:36:20;;;;;;;7.15;4.95;;;-0.80;74.00;;;;;;5087529;28;20024;-60
2022/01/11 04:38:46;;;;;;;9.57;5.72;;;-0.80;74.20;;;;;;5076498;28;20024;-60
2022/01/11 04:41:12;;;;;;;7.32;4.97;;;-0.80;74.40;;;;;;5105147;28;20102;-60
2022/01/11 04:43:38;;;;;;;9.80;5.78;;;-0.80;74.30;;;;;;5089600;28;20051;-59
2022/01/11 04:46:03;;;;;;;11.73;5.90;;;-0.80;74.50;;;;;;5093083;28;20059;-58
2022/01/11 04:48:32;;;;;;;10.27;5.63;;;-0.80;74.50;;;;;;5094574;28;20020;-58
2022/01/11 04:50:59;;;;;;;8.80;5.85;;;-0.80;74.40;;;;;;5081426;28;20036;-59
2022/01/11 04:53:25;;;;;;;10.05;6.50;;;-0.90;74.40;;;;;;5087072;28;20091;-58
2022/01/11 04:55:50;;;;;;;8.95;6.43;;;-0.90;74.40;;;;;;5082534;28;20024;-57
2022/01/11 04:58:17;;;;;;;9.18;6.13;;;-0.90;74.50;;;;;;5094222;28;20099;-58
2022/01/11 05:00:43;;;;;;;9.70;6.35;;;-0.90;74.60;;;;;;5094668;28;20039;-58
2022/01/11 05:03:09;;;;;;;11.70;7.03;;;-0.90;74.90;;;;;;5094095;28;20024;-57
2022/01/11 05:05:35;;;;;;;7.88;6.13;;;-1.00;74.80;;;;;;5089866;28;20028;-59
2022/01/11 05:08:02;;;;;;;9.25;6.65;;;-1.00;74.70;;;;;;5088002;28;20036;-59
2022/01/11 05:10:28;;;;;;;10.00;6.10;;;-1.00;75.00;;;;;;5087778;28;20027;-58
2022/01/11 05:12:54;;;;;;;12.05;6.65;;;-1.00;75.00;;;;;;5093620;28;20024;-59
2022/01/11 05:15:20;;;;;;;10.45;6.05;;;-1.00;75.10;;;;;;5094559;28;20020;-58
2022/01/11 05:17:46;;;;;;;11.23;6.65;;;-1.00;75.10;;;;;;5094568;28;20020;-59
2022/01/11 05:20:12;;;;;;;9.02;6.28;;;-1.00;75.10;;;;;;5093240;28;20028;-59
2022/01/11 05:22:38;;;;;;;9.70;6.25;;;-1.00;75.20;;;;;;5101105;28;20433;-59
2022/01/11 05:25:06;;;;;;;9.50;6.35;;;-1.00;75.40;;;;;;5100041;28;20078;-59
2022/01/11 05:27:32;;;;;;;8.98;6.32;;;-1.00;75.30;;;;;;5090892;28;20040;-58
2022/01/11 05:29:57;;;;;;;12.48;6.78;;;-1.00;75.20;;;;;;5081739;28;20086;-59
2022/01/11 05:32:23;;;;;;;9.70;6.65;;;-1.00;75.70;;;;;;5089854;28;20052;-59
2022/01/11 05:34:49;;;;;;;9.80;6.15;;;-1.00;75.10;;;;;;5084969;28;20476;-59
2022/01/11 05:37:14;;;;;;;9.10;5.68;;;-1.00;75.20;;;;;;5084665;28;20050;-57
2022/01/11 05:39:40;;;;;;;10.32;5.93;;;-1.00;75.20;;;;;;5094103;28;20039;-57
2022/01/11 05:42:07;;;;;;;9.05;6.18;;;-1.00;75.10;;;;;;5087058;28;20127;-57
2022/01/11 05:44:36;;;;;;;11.48;6.93;;;-1.00;75.10;;;;;;5085319;28;20024;-58
2022/01/11 05:47:03;;;;;;;10.70;6.13;;;-1.10;75.10;;;;;;5087947;28;20068;-57
2022/01/11 05:49:29;;;;;;;11.52;6.50;;;-1.10;75.10;;;;;;5082881;28;20028;-59
2022/01/11 05:51:55;;;;;;;9.48;5.78;;;-1.10;75.30;;;;;;5093966;28;20384;-58
2022/01/11 05:54:21;;;;;;;10.13;5.88;;;-1.10;75.00;;;;;;5089967;28;20025;-59
2022/01/11 05:56:47;;;;;;;11.48;5.95;;;-1.10;75.30;;;;;;5078150;28;20423;-58
2022/01/11 05:59:13;;;;;;;9.13;5.82;;;-1.10;75.30;;;;;;5089036;28;20028;-59
2022/01/11 06:01:38;;;;;;;11.25;6.32;;;-1.10;75.20;;;;;;5082561;28;20464;-62
2022/01/11 06:04:04;;;;;;;8.95;5.82;;;-1.10;75.30;;;;;;5081911;28;20024;-62
2022/01/11 06:06:29;;;;;;;9.93;6.22;;;-1.10;75.20;;;;;;5088169;28;20115;-58
2022/01/11 06:08:55;;;;;;;12.77;6.63;;;-1.10;75.30;;;;;;5083433;28;20024;-59
2022/01/11 06:11:21;;;;;;;10.05;5.40;;;-1.10;75.20;;;;;;5089712;28;20080;-60
2022/01/11 06:13:50;;;;;;;8.63;5.70;;;-1.20;75.20;;;;;;5082268;28;20036;-59
2022/01/11 06:16:16;;;;;;;10.02;6.10;;;-1.20;75.20;;;;;;5087380;28;20048;-59
2022/01/11 06:18:43;;;;;;;10.20;6.50;;;-1.20;75.20;;;;;;5077965;28;20052;-59
2022/01/11 06:21:09;;;;;;;8.88;5.85;;;-1.20;75.20;;;;;;5078412;28;20059;-57
2022/01/11 06:23:35;;;;;;;9.45;6.10;;;-1.20;75.20;;;;;;5074162;28;20098;-59
2022/01/11 06:26:01;;;;;;;8.75;5.32;;;-1.20;75.20;;;;;;5079806;28;20106;-58
2022/01/11 06:28:26;;;;;;;9.05;5.13;;;-1.20;75.30;;;;;;5083906;28;20032;-60
2022/01/11 06:30:52;;;;;;;8.18;5.65;;;-1.20;75.70;;;;;;5087035;28;20544;-58
2022/01/11 06:33:18;;;;;;;9.30;6.00;;;-1.20;75.50;;;;;;5081609;28;20444;-58
2022/01/11 06:35:44;;;;;;;9.18;5.78;;;-1.20;75.50;;;;;;5069071;28;20443;-57
2022/01/11 06:38:09;;;;;;;8.18;5.28;;;-1.20;75.60;;;;;;5070237;28;20032;-59
2022/01/11 06:40:35;;;;;;;10.48;6.28;;;-1.20;75.40;;;;;;5072270;28;20028;-58
2022/01/11 06:43:00;;;;;;;9.02;6.35;;;-1.20;75.70;;;;;;5070589;28;20036;-59
2022/01/11 06:45:27;;;;;;;6.65;5.50;;;-1.20;75.90;;;;;;5074144;28;20055;-57
2022/01/11 06:47:53;;;;;;;8.20;5.65;;;-1.20;75.70;;;;;;5074980;28;20058;-58
2022/01/11 06:50:19;;;;;;;10.27;5.72;;;-1.20;75.50;;;;;;5073457;28;20039;-49
2022/01/11 06:52:45;;;;;;;6.38;4.57;;;-1.20;75.90;;;;;;5071554;28;20059;-53
2022/01/11 06:55:12;;;;;;;6.70;4.63;;;-1.20;75.70;;;;;;5068833;28;20074;-50
2022/01/11 06:57:38;;;;;;;8.40;5.72;;;-1.20;75.80;;;;;;5070198;28;20082;-52
2022/01/11 07:00:06;;;;;;;9.00;5.30;;;-1.20;76.00;;;;;;5070268;28;20410;-54
2022/01/11 07:02:32;;;;;;;10.02;5.85;;;-1.20;76.10;;;;;;5068561;28;20024;-53
2022/01/11 07:04:57;;;;;;;8.05;5.82;;;-1.20;75.80;;;;;;5066209;28;20032;-53
2022/01/11 07:07:23;;;;;;;7.25;5.00;;;-1.20;75.70;;;;;;5060935;28;20507;-54
2022/01/11 07:09:49;;;;;;;8.18;5.95;;;-1.20;75.90;;;;;;5070271;28;20101;-51
2022/01/11 07:12:14;;;;;;;6.32;5.07;;;-1.20;76.10;;;;;;5056503;28;20047;-52
2022/01/11 07:14:40;;;;;;;9.40;5.32;;;-1.20;76.30;;;;;;5074410;28;20028;-49
2022/01/11 07:17:06;;;;;;;6.50;4.63;;;-1.20;76.30;;;;;;5075706;28;20601;-52
2022/01/11 07:19:31;;;;;;;7.75;4.97;;;-1.20;76.10;;;;;;5068917;28;20035;-54
2022/01/11 07:21:59;;;;;;;8.60;5.13;;;-1.20;76.30;;;;;;5071416;28;20040;-53
2022/01/11 07:24:24;;;;;;;7.78;5.40;;;-1.20;76.50;;;;;;5071820;28;20044;-50
2022/01/11 07:26:50;;;;;;;6.53;4.40;;;-1.20;76.20;;;;;;5064189;28;20261;-53
2022/01/11 07:29:16;;;;;;;6.88;4.43;;;-1.20;76.30;;;;;;5068746;28;22855;-49
2022/01/11 07:31:42;;;;;;;6.05;4.72;;;-1.20;76.20;;;;;;5050889;28;20040;-52
2022/01/11 07:34:09;;;;;;;7.90;4.93;;;-1.20;76.00;;;;;;5073591;28;20534;-51
2022/01/11 07:36:35;;;;;;;6.70;4.00;;;-1.20;76.00;;;;;;5073228;28;20035;-53
2022/01/11 07:39:02;;;;;;;7.13;4.85;;;-1.10;76.20;;;;;;5071815;28;20427;-49
2022/01/11 07:41:28;;;;;;;6.75;4.32;;;-1.10;76.00;;;;;;5075066;28;20025;-51
2022/01/11 07:43:53;;;;;;;6.00;4.10;;;-1.10;76.20;;;;;;5071649;28;20775;-54
2022/01/11 07:46:19;;;;;;;6.70;3.92;;;-1.10;76.60;;;;;;5077632;28;20051;-55
2022/01/11 07:48:44;;;;;;;5.90;4.05;;;-1.10;75.90;;;;;;5070659;28;20036;-54
2022/01/11 07:51:11;;;;;;;5.43;3.85;;;-1.10;75.80;;;;;;5074964;28;20046;-49
2022/01/11 07:53:37;;;;;;;7.22;4.00;;;-1.00;76.10;;;;;;5074232;28;20411;-53
2022/01/11 07:56:03;;;;;;;5.05;4.22;;;-1.00;75.90;;;;;;5073789;28;20028;-50
2022/01/11 07:58:29;;;;;;;5.15;3.65;;;-1.00;75.80;;;;;;5069711;28;20029;-51
2022/01/11 08:00:55;;;;;;;6.20;3.85;;;-1.00;75.90;;;;;;5077703;28;20110;-50
2022/01/11 08:03:21;;;;;;;5.30;4.15;;;-0.90;76.10;;;;;;5066900;28;20045;-54
2022/01/11 08:05:47;;;;;;;6.63;3.83;;;-0.90;75.90;;;;;;5063136;28;20046;-53
2022/01/11 08:08:12;;;;;;;5.72;4.00;;;-0.90;75.50;;;;;;5060222;28;20028;-49
2022/01/11 08:10:38;;;;;;;5.15;3.92;;;-0.80;75.50;;;;;;5058037;28;20063;-49
2022/01/11 08:13:07;;;;;;;5.30;4.18;;;-0.80;75.50;;;;;;5065415;28;20055;-54
2022/01/11 08:15:34;;;;;;;5.97;4.20;;;-0.80;75.20;;;;;;5059136;28;20028;-54
2022/01/11 08:18:02;;;;;;;5.72;4.10;;;-0.70;75.40;;;;;;5072806;28;20028;-53
2022/01/11 08:20:27;;;;;;;6.72;4.43;;;-0.70;75.40;;;;;;5070836;28;20036;-53
2022/01/11 08:22:54;;;;;;;6.70;4.05;;;-0.70;75.00;;;;;;5062628;28;20062;-55
2022/01/11 08:25:20;;;;;;;6.00;3.83;;;-0.70;75.00;;;;;;5070812;28;20041;-49
2022/01/11 08:27:46;;;;;;;6.53;4.00;;;-0.70;74.90;;;;;;5057999;28;20028;-53
2022/01/11 08:30:12;;;;;;;5.60;4.07;;;-0.70;74.60;;;;;;5068893;28;20427;-53
2022/01/11 08:32:38;;;;;;;5.90;3.97;;;-0.70;74.20;;;;;;5058893;28;20031;-54
2022/01/11 08:35:05;;;;;;;6.82;4.05;;;-0.60;74.20;;;;;;5060342;28;20032;-54
2022/01/11 08:37:31;;;;;;;4.88;3.72;;;-0.60;73.90;;;;;;5063916;28;20027;-53
2022/01/11 08:39:57;;;;;;;4.30;3.50;;;-0.60;73.70;;;;;;5058057;28;20468;-53
2022/01/11 08:42:22;;;;;;;5.10;4.43;;;-0.60;73.80;;;;;;5057042;28;20488;-50
2022/01/11 08:44:49;;;;;;;5.60;3.83;;;-0.50;73.10;;;;;;5068301;28;20032;-53
2022/01/11 08:47:16;;;;;;;5.25;3.65;;;-0.50;72.70;;;;;;5063103;28;20026;-51
2022/01/11 08:49:42;;;;;;;5.10;3.55;;;-0.50;73.00;;;;;;5066373;28;20040;-51
2022/01/11 08:52:08;;;;;;;4.80;3.45;;;-0.50;73.00;;;;;;5067857;28;20492;-49
2022/01/11 08:54:34;;;;;;;3.60;3.30;;;-0.50;72.90;;;;;;5064833;28;20107;-54
2022/01/11 08:57:00;;;;;;;4.65;3.63;;;-0.50;72.70;;;;;;5056838;28;20050;-53
2022/01/11 08:59:26;;;;;;;4.82;3.42;;;-0.50;72.60;;;;;;5058208;28;20036;-52
2022/01/11 09:01:55;;;;;;;6.57;3.78;;;-0.50;72.70;;;;;;5055502;28;20039;-54
2022/01/11 09:04:22;;;;;;;3.85;3.45;;;-0.50;72.80;;;;;;5064070;28;20028;-55
2022/01/11 09:06:49;;;;;;;6.43;4.13;;;-0.50;72.60;;;;;;5072198;28;20039;-54
2022/01/11 09:09:14;;;;;;;5.25;3.42;;;-0.50;72.90;;;;;;5069308;28;20044;-53
2022/01/11 09:11:42;;;;;;;4.35;3.10;;;-0.50;72.70;;;;;;5069996;28;20299;-52
2022/01/11 09:14:08;;;;;;;4.78;3.50;;;-0.50;72.30;;;;;;5062094;28;20060;-53
2022/01/11 09:16:34;;;;;;;4.25;3.60;;;-0.50;72.70;;;;;;5061929;28;20033;-54
2022/01/11 09:18:59;;;;;;;4.88;3.42;;;-0.50;72.10;;;;;;5069561;28;20035;-53
2022/01/11 09:21:25;;;;;;;5.07;3.47;;;-0.50;72.00;;;;;;5061983;28;20044;-53
2022/01/11 09:23:51;;;;;;;5.22;3.65;;;-0.60;71.70;;;;;;5071829;28;20060;-52
2022/01/11 09:26:17;;;;;;;4.25;3.40;;;-0.60;71.50;;;;;;5061768;28;20086;-51
2022/01/11 09:28:43;;;;;;;5.68;3.65;;;-0.60;71.60;;;;;;5056579;28;20081;-52
2022/01/11 09:31:10;;;;;;;4.97;3.25;;;-0.60;71.80;;;;;;5062047;28;20036;-54
2022/01/11 09:33:36;;;;;;;5.35;3.58;;;-0.60;71.90;;;;;;5067488;28;20016;-55
2022/01/11 09:36:02;;;;;;;4.78;3.40;;;-0.60;71.90;;;;;;5063923;28;20077;-54
2022/01/11 09:38:28;;;;;;;5.75;3.38;;;-0.60;71.90;;;;;;5064355;28;20115;-54
2022/01/11 09:40:56;;;;;;;5.40;3.72;;;-0.60;71.90;;;;;;5065411;28;21538;-53
2022/01/11 09:43:24;;;;;;;4.55;3.30;;;-0.50;71.80;;;;;;5063500;28;20037;-53
2022/01/11 09:45:51;;;;;;;4.45;3.17;;;-0.50;71.90;;;;;;5058582;28;20032;-51
2022/01/11 09:48:22;;;;;;;6.75;4.15;;;-0.50;72.00;;;;;;5068067;28;21896;-55
2022/01/11 09:50:48;;;;;;;4.65;3.40;;;-0.50;71.80;;;;;;5065137;28;20580;-55
2022/01/11 09:53:14;;;;;;;5.90;3.97;;;-0.50;71.50;;;;;;5068323;28;20119;-52
2022/01/11 09:55:41;;;;;;;5.43;3.40;;;-0.40;71.50;;;;;;5072829;28;20110;-51
2022/01/11 09:58:07;;;;;;;5.65;3.72;;;-0.40;71.60;;;;;;5060653;28;20036;-53
2022/01/11 10:00:33;;;;;;;5.22;3.40;;;-0.40;71.50;;;;;;5063253;28;20043;-54
2022/01/11 10:02:59;;;;;;;4.45;3.50;;;-0.40;71.50;;;;;;5059174;28;20031;-53
2022/01/11 10:05:25;;;;;;;5.32;3.38;;;-0.40;71.30;;;;;;5054357;28;20032;-52
2022/01/11 10:07:50;;;;;;;5.05;4.18;;;-0.30;71.50;;;;;;5069512;28;20083;-52
2022/01/11 10:10:19;;;;;;;4.88;3.42;;;-0.30;71.00;;;;;;5061126;28;20475;-49
2022/01/11 10:13:03;;;;;;;5.45;3.75;;;-0.30;70.50;;;;;;5065431;28;20032;-51
2022/01/11 10:15:31;;;;;;;6.05;3.95;;;-0.30;70.50;;;;;;5059982;28;20489;-48
2022/01/11 10:17:57;;;;;;;4.93;3.42;;;-0.30;70.50;;;;;;5061271;28;20035;-48
2022/01/11 10:20:25;;;;;;;7.20;4.32;;;-0.30;70.40;;;;;;5058360;28;20139;-46
2022/01/11 10:23:00;;;;;;;4.80;3.67;;;-0.30;70.50;;;;;;5063494;28;20028;-47
2022/01/11 10:25:30;;;;;;;6.43;3.42;;;-0.30;70.40;;;;;;5055203;28;20036;-51
2022/01/11 10:28:01;;;;;;;4.93;3.33;;;-0.30;70.20;;;;;;5054389;28;20032;-51
2022/01/11 10:30:27;;;;;;;;;;;-0.40;70.10;;;;;;5050659;28;20084;-50
2022/01/11 10:32:56;;;;;;;3.92;3.38;;;-0.40;69.40;;;;;;5054780;28;19912;-47
2022/01/11 10:35:31;;;;;;;4.30;3.63;;;-0.40;70.40;;;;;;5057444;28;20032;-53
2022/01/11 10:38:03;;;;;;;7.60;3.67;;;-0.40;70.20;;;;;;5069350;28;20069;-54
2022/01/11 10:40:40;;;;;;;5.32;3.42;;;-0.40;69.90;;;;;;5066736;28;20495;-50
2022/01/11 10:43:17;;;;;;;6.13;3.90;;;-0.40;70.20;;;;;;5060813;28;20484;-52
2022/01/11 10:45:52;;;;;;;5.43;4.03;;;-0.40;70.10;;;;;;5061807;28;20029;-50
2022/01/11 10:48:27;;;;;;;7.30;3.35;;;-0.40;70.00;;;;;;5052614;28;20042;-50
2022/01/11 10:51:01;;;;;;;5.05;3.80;;;-0.50;69.30;;;;;;5056326;28;20647;-52
2022/01/11 10:53:32;;;;;;;4.93;3.30;;;-0.50;69.10;;;;;;5059564;28;20085;-52
2022/01/11 10:56:01;;;;;;;5.75;4.07;;;-0.50;69.30;;;;;;5053463;28;20028;-51
2022/01/11 10:58:36;;;;;;;4.28;3.30;;;-0.50;69.50;;;;;;5053457;28;20533;-52
2022/01/11 11:01:04;;;;;;;5.38;3.65;;;-0.50;69.60;;;;;;5054120;28;20021;-49
2022/01/11 11:03:32;;;;;;;3.72;3.28;;;-0.40;69.70;;;;;;5055816;28;20764;-50
2022/01/11 11:06:10;;;;;;;4.05;3.40;;;-0.40;69.60;;;;;;5052394;28;20035;-51
2022/01/11 11:08:42;;;;;;;4.88;3.45;;;-0.40;69.50;;;;;;5057838;28;20028;-52
2022/01/11 11:11:10;;;;;;;5.43;3.42;;;-0.40;69.40;;;;;;5062666;28;20118;-49
2022/01/11 11:13:38;;;;;;;5.68;3.80;;;-0.40;70.10;;;;;;5072296;28;20380;-51
2022/01/11 11:16:30;;;;;;;4.72;3.67;;;-0.40;69.30;;;;;;5071069;28;20039;-50
2022/01/11 11:18:57;;;;;;;6.25;3.83;;;-0.40;69.30;;;;;;5071877;28;20020;-52
2022/01/11 11:21:27;;;;;;;5.07;3.35;;;-0.40;69.10;;;;;;5077070;28;20048;-50
2022/01/11 11:24:06;;;;;;;3.97;3.50;;;-0.40;69.20;;;;;;5074838;28;20054;-52
2022/01/11 11:26:37;;;;;;;6.18;3.85;;;-0.40;68.90;;;;;;5068307;28;20573;-51
2022/01/11 11:29:04;;;;;;;5.20;3.60;;;-0.40;69.00;;;;;;5062677;28;20036;-49
2022/01/11 11:31:30;;;;;;;4.00;3.40;;;-0.40;68.90;;;;;;5066223;28;20036;-52
2022/01/11 11:33:56;;;;;;;5.95;3.70;;;-0.40;69.20;;;;;;5070547;28;20031;-53
2022/01/11 11:36:22;;;;;;;4.95;3.80;;;-0.30;69.50;;;;;;5070072;28;20031;-51
2022/01/11 11:39:03;;;;;;;4.90;3.47;;;-0.30;68.70;;;;;;5074935;28;20117;-49
2022/01/11 11:41:30;;;;;;;4.22;3.40;;;-0.30;69.00;;;;;;5074227;28;20074;-52
2022/01/11 11:44:16;;;;;;;4.25;3.67;;;-0.30;69.00;;;;;;5070903;28;20115;-52
2022/01/11 11:46:50;;;;;;;5.28;3.40;;;-0.20;69.50;;;;;;5070732;28;20035;-51
2022/01/11 11:49:36;;;;;;;4.93;3.45;;;-0.10;69.80;;;;;;5070852;28;20043;-53
2022/01/11 11:52:17;;;;;;;4.85;3.30;;;-0.10;69.40;;;;;;5069872;28;20032;-53
2022/01/11 11:55:06;;;;;;;3.97;3.58;;;-0.10;69.90;;;;;;5067490;28;20036;-50
2022/01/11 11:57:34;;;;;;;3.90;3.30;;;0.00;69.10;;;;;;5071707;28;20028;-53
2022/01/11 12:00:26;;;;;;;4.93;3.53;;;0.00;69.40;;;;;;5070902;28;20598;-51
2022/01/11 12:02:53;;;;;;;5.88;3.72;;;0.00;69.10;;;;;;5062528;28;20097;-53
2022/01/11 12:05:39;;;;;;;3.97;3.17;;;0.00;69.00;;;;;;5058962;28;20038;-50
2022/01/11 12:08:23;;;;;;;4.47;3.17;;;0.10;70.00;;;;;;5064310;28;20033;-53
2022/01/11 12:10:55;;;;;;;5.65;3.85;;;0.10;69.30;;;;;;5064562;28;20028;-53
2022/01/11 12:13:41;;;;;;;4.70;3.20;;;0.10;69.30;;;;;;5057005;28;20032;-53
2022/01/11 12:16:25;;;;;;;4.20;3.20;;;0.20;69.70;;;;;;5061364;28;20017;-50
2022/01/11 12:18:52;;;;;;;5.65;4.38;;;0.20;69.80;;;;;;5057731;28;20103;-53
2022/01/11 12:21:18;;;;;;;5.20;3.60;;;0.20;69.80;;;;;;5065333;28;20051;-53
2022/01/11 12:23:44;;;;;;;4.47;3.83;;;0.20;69.40;;;;;;5063865;28;20043;-54
2022/01/11 12:26:16;;;;;;;3.85;3.40;;;0.30;69.40;;;;;;5067308;28;20037;-52
2022/01/11 12:29:09;;;;;;;4.15;3.22;;;0.30;68.90;;;;;;5065461;28;20720;-52
2022/01/11 12:31:37;;;;;;;3.95;3.50;;;0.30;68.70;;;;;;5056326;28;20044;-54
2022/01/11 12:34:08;;;;;;;3.95;2.97;;;0.30;68.70;;;;;;5064542;28;20487;-53
2022/01/11 12:36:52;;;;;;;4.72;3.30;;;0.30;68.40;;;;;;5066526;28;20028;-53
2022/01/11 12:39:19;;;;;;;4.57;3.42;;;0.30;69.10;;;;;;5062643;28;20042;-50
2022/01/11 12:41:48;;;;;;;4.40;3.40;;;0.30;68.90;;;;;;5058116;28;20628;-54
2022/01/11 12:44:32;;;;;;;3.90;3.33;;;0.30;69.30;;;;;;5066551;28;20032;-52
2022/01/11 12:47:08;;;;;;;4.47;3.35;;;0.30;68.60;;;;;;5050066;28;20036;-49
2022/01/11 12:49:39;;;;;;;5.00;3.50;;;0.30;67.90;;;;;;5063671;28;20032;-53
2022/01/11 12:52:17;;;;;;;5.97;3.28;;;0.20;67.50;;;;;;5055350;28;20035;-55
2022/01/11 12:54:49;;;;;;;4.00;3.22;;;0.20;67.50;;;;;;5059449;28;20031;-55
2022/01/11 12:57:27;;;;;;;3.72;3.00;;;0.10;67.20;;;;;;5061434;28;20024;-56